sensor_id;sensor_type;location;lat;lon;timestamp;P1;durP1;ratioP1;P2;durP2;ratioP2
9256;SDS011;4665;51.368;6.782;2023-02-01T00:00:21;11.90;;;4.97;;
9256;SDS011;4665;51.368;6.782;2023-02-01T00:02:47;14.47;;;4.87;;
9256;SDS011;4665;51.368;6.782;2023-02-01T00:05:12;11.73;;;5.00;;
9256;SDS011;4665;51.368;6.782;2023-02-01T00:07:38;14.20;;;4.57;;
9256;SDS011;4665;51.368;6.782;2023-02-01T00:10:04;10.47;;;4.70;;
9256;SDS011;4665;51.368;6.782;2023-02-01T00:12:31;12.80;;;4.87;;
9256;SDS011;4665;51.368;6.782;2023-02-01T00:14:56;11.97;;;5.10;;
9256;SDS011;4665;51.368;6.782;2023-02-01T00:17:22;9.93;;;4.53;;
9256;SDS011;4665;51.368;6.782;2023-02-01T00:19:48;11.47;;;4.43;;
9256;SDS011;4665;51.368;6.782;2023-02-01T00:22:13;11.67;;;4.60;;
9256;SDS011;4665;51.368;6.782;2023-02-01T00:24:38;12.40;;;5.30;;
9256;SDS011;4665;51.368;6.782;2023-02-01T00:27:04;10.73;;;5.07;;
9256;SDS011;4665;51.368;6.782;2023-02-01T00:29:29;13.67;;;5.17;;
9256;SDS011;4665;51.368;6.782;2023-02-01T00:31:55;10.97;;;4.43;;
9256;SDS011;4665;51.368;6.782;2023-02-01T00:34:21;14.87;;;6.00;;
9256;SDS011;4665;51.368;6.782;2023-02-01T00:36:46;13.47;;;5.33;;
9256;SDS011;4665;51.368;6.782;2023-02-01T00:39:13;10.17;;;4.63;;
9256;SDS011;4665;51.368;6.782;2023-02-01T00:41:40;12.50;;;5.93;;
9256;SDS011;4665;51.368;6.782;2023-02-01T00:44:06;12.70;;;5.70;;
9256;SDS011;4665;51.368;6.782;2023-02-01T00:46:31;14.43;;;6.10;;
9256;SDS011;4665;51.368;6.782;2023-02-01T00:48:57;11.23;;;6.30;;
9256;SDS011;4665;51.368;6.782;2023-02-01T00:51:25;12.60;;;6.27;;
9256;SDS011;4665;51.368;6.782;2023-02-01T00:53:53;14.27;;;6.83;;
9256;SDS011;4665;51.368;6.782;2023-02-01T00:56:19;13.00;;;6.73;;
9256;SDS011;4665;51.368;6.782;2023-02-01T00:58:44;18.30;;;7.43;;
9256;SDS011;4665;51.368;6.782;2023-02-01T01:01:12;17.73;;;7.50;;
9256;SDS011;4665;51.368;6.782;2023-02-01T01:03:42;12.03;;;6.83;;
9256;SDS011;4665;51.368;6.782;2023-02-01T01:06:14;12.53;;;7.13;;
9256;SDS011;4665;51.368;6.782;2023-02-01T01:08:41;12.10;;;6.30;;
9256;SDS011;4665;51.368;6.782;2023-02-01T01:11:08;12.87;;;6.87;;
9256;SDS011;4665;51.368;6.782;2023-02-01T01:13:39;11.03;;;5.80;;
9256;SDS011;4665;51.368;6.782;2023-02-01T01:16:05;13.87;;;5.70;;
9256;SDS011;4665;51.368;6.782;2023-02-01T01:18:32;18.47;;;6.60;;
9256;SDS011;4665;51.368;6.782;2023-02-01T01:20:58;13.57;;;5.67;;
9256;SDS011;4665;51.368;6.782;2023-02-01T01:23:24;14.80;;;6.27;;
9256;SDS011;4665;51.368;6.782;2023-02-01T01:25:50;11.20;;;5.27;;
9256;SDS011;4665;51.368;6.782;2023-02-01T01:28:16;15.93;;;6.10;;
9256;SDS011;4665;51.368;6.782;2023-02-01T01:30:41;15.13;;;5.97;;
9256;SDS011;4665;51.368;6.782;2023-02-01T01:33:07;10.50;;;5.10;;
9256;SDS011;4665;51.368;6.782;2023-02-01T01:35:32;9.53;;;4.77;;
9256;SDS011;4665;51.368;6.782;2023-02-01T01:37:59;13.10;;;5.17;;
9256;SDS011;4665;51.368;6.782;2023-02-01T01:40:26;10.63;;;4.90;;
9256;SDS011;4665;51.368;6.782;2023-02-01T01:42:52;12.63;;;5.30;;
9256;SDS011;4665;51.368;6.782;2023-02-01T01:45:22;16.00;;;5.00;;
9256;SDS011;4665;51.368;6.782;2023-02-01T01:47:57;10.63;;;4.83;;
9256;SDS011;4665;51.368;6.782;2023-02-01T01:50:45;11.17;;;5.07;;
9256;SDS011;4665;51.368;6.782;2023-02-01T01:53:14;12.83;;;5.13;;
9256;SDS011;4665;51.368;6.782;2023-02-01T01:55:44;10.87;;;5.00;;
9256;SDS011;4665;51.368;6.782;2023-02-01T01:58:17;11.57;;;4.63;;
9256;SDS011;4665;51.368;6.782;2023-02-01T02:08:42;11.00;;;3.70;;
9256;SDS011;4665;51.368;6.782;2023-02-01T02:11:07;10.30;;;3.93;;
9256;SDS011;4665;51.368;6.782;2023-02-01T02:13:44;13.00;;;4.30;;
9256;SDS011;4665;51.368;6.782;2023-02-01T02:21:41;10.67;;;4.33;;
9256;SDS011;4665;51.368;6.782;2023-02-01T02:27:28;11.43;;;4.10;;
9256;SDS011;4665;51.368;6.782;2023-02-01T02:44:48;12.57;;;3.60;;
9256;SDS011;4665;51.368;6.782;2023-02-01T02:53:32;11.50;;;3.93;;
9256;SDS011;4665;51.368;6.782;2023-02-01T02:56:22;10.83;;;3.83;;
9256;SDS011;4665;51.368;6.782;2023-02-01T02:59:09;8.40;;;3.27;;
9256;SDS011;4665;51.368;6.782;2023-02-01T03:01:58;13.00;;;3.80;;
9256;SDS011;4665;51.368;6.782;2023-02-01T03:04:42;12.70;;;3.87;;
9256;SDS011;4665;51.368;6.782;2023-02-01T03:07:42;10.50;;;3.40;;
9256;SDS011;4665;51.368;6.782;2023-02-01T03:12:52;11.60;;;3.53;;
9256;SDS011;4665;51.368;6.782;2023-02-01T03:15:32;13.23;;;4.30;;
9256;SDS011;4665;51.368;6.782;2023-02-01T03:18:03;14.20;;;4.60;;
9256;SDS011;4665;51.368;6.782;2023-02-01T03:20:35;11.27;;;3.67;;
9256;SDS011;4665;51.368;6.782;2023-02-01T03:23:04;13.53;;;4.03;;
9256;SDS011;4665;51.368;6.782;2023-02-01T03:25:31;14.53;;;3.90;;
9256;SDS011;4665;51.368;6.782;2023-02-01T03:30:34;13.60;;;4.70;;
9256;SDS011;4665;51.368;6.782;2023-02-01T03:33:03;8.57;;;3.30;;
9256;SDS011;4665;51.368;6.782;2023-02-01T03:42:02;12.60;;;3.73;;
9256;SDS011;4665;51.368;6.782;2023-02-01T03:44:32;10.57;;;3.87;;
9256;SDS011;4665;51.368;6.782;2023-02-01T03:47:20;15.37;;;4.10;;
9256;SDS011;4665;51.368;6.782;2023-02-01T03:49:52;10.17;;;4.13;;
9256;SDS011;4665;51.368;6.782;2023-02-01T03:52:34;16.30;;;4.27;;
9256;SDS011;4665;51.368;6.782;2023-02-01T03:55:02;12.17;;;4.17;;
9256;SDS011;4665;51.368;6.782;2023-02-01T03:57:31;14.93;;;4.17;;
9256;SDS011;4665;51.368;6.782;2023-02-01T04:02:35;7.67;;;3.80;;
9256;SDS011;4665;51.368;6.782;2023-02-01T04:05:00;11.77;;;3.90;;
9256;SDS011;4665;51.368;6.782;2023-02-01T04:07:25;18.00;;;4.27;;
9256;SDS011;4665;51.368;6.782;2023-02-01T04:09:51;10.83;;;3.33;;
9256;SDS011;4665;51.368;6.782;2023-02-01T04:12:16;12.87;;;4.00;;
9256;SDS011;4665;51.368;6.782;2023-02-01T04:14:42;12.90;;;4.33;;
9256;SDS011;4665;51.368;6.782;2023-02-01T04:17:07;15.40;;;4.03;;
9256;SDS011;4665;51.368;6.782;2023-02-01T04:19:33;13.93;;;4.33;;
9256;SDS011;4665;51.368;6.782;2023-02-01T04:21:58;12.50;;;3.77;;
9256;SDS011;4665;51.368;6.782;2023-02-01T04:24:23;17.47;;;4.70;;
9256;SDS011;4665;51.368;6.782;2023-02-01T04:26:49;12.00;;;3.73;;
9256;SDS011;4665;51.368;6.782;2023-02-01T04:29:14;12.90;;;4.47;;
9256;SDS011;4665;51.368;6.782;2023-02-01T04:31:40;14.70;;;3.83;;
9256;SDS011;4665;51.368;6.782;2023-02-01T04:34:05;13.37;;;4.17;;
9256;SDS011;4665;51.368;6.782;2023-02-01T04:36:31;10.53;;;4.20;;
9256;SDS011;4665;51.368;6.782;2023-02-01T04:38:56;14.37;;;4.53;;
9256;SDS011;4665;51.368;6.782;2023-02-01T04:41:21;16.10;;;4.43;;
9256;SDS011;4665;51.368;6.782;2023-02-01T04:43:48;13.03;;;3.93;;
9256;SDS011;4665;51.368;6.782;2023-02-01T04:46:14;14.13;;;4.43;;
9256;SDS011;4665;51.368;6.782;2023-02-01T04:48:41;14.67;;;4.10;;
9256;SDS011;4665;51.368;6.782;2023-02-01T04:51:07;19.23;;;5.30;;
9256;SDS011;4665;51.368;6.782;2023-02-01T04:53:32;15.27;;;4.57;;
9256;SDS011;4665;51.368;6.782;2023-02-01T04:55:57;17.27;;;4.90;;
9256;SDS011;4665;51.368;6.782;2023-02-01T04:58:23;19.20;;;4.80;;
9256;SDS011;4665;51.368;6.782;2023-02-01T05:00:48;13.73;;;4.57;;
9256;SDS011;4665;51.368;6.782;2023-02-01T05:03:14;15.50;;;4.40;;
9256;SDS011;4665;51.368;6.782;2023-02-01T05:05:40;16.97;;;4.50;;
9256;SDS011;4665;51.368;6.782;2023-02-01T05:08:05;11.30;;;4.23;;
9256;SDS011;4665;51.368;6.782;2023-02-01T05:10:30;15.50;;;4.07;;
9256;SDS011;4665;51.368;6.782;2023-02-01T05:12:56;16.40;;;3.87;;
9256;SDS011;4665;51.368;6.782;2023-02-01T05:15:40;16.73;;;4.50;;
9256;SDS011;4665;51.368;6.782;2023-02-01T05:18:05;13.83;;;4.17;;
9256;SDS011;4665;51.368;6.782;2023-02-01T05:20:31;13.53;;;3.97;;
9256;SDS011;4665;51.368;6.782;2023-02-01T05:22:56;13.40;;;3.83;;
9256;SDS011;4665;51.368;6.782;2023-02-01T05:25:21;15.10;;;4.23;;
9256;SDS011;4665;51.368;6.782;2023-02-01T05:27:47;15.40;;;4.93;;
9256;SDS011;4665;51.368;6.782;2023-02-01T05:30:13;19.70;;;4.50;;
9256;SDS011;4665;51.368;6.782;2023-02-01T05:32:38;14.13;;;4.00;;
9256;SDS011;4665;51.368;6.782;2023-02-01T05:35:04;14.20;;;4.00;;
9256;SDS011;4665;51.368;6.782;2023-02-01T05:37:30;14.10;;;4.40;;
9256;SDS011;4665;51.368;6.782;2023-02-01T05:39:55;14.53;;;4.03;;
9256;SDS011;4665;51.368;6.782;2023-02-01T05:42:20;12.20;;;4.37;;
9256;SDS011;4665;51.368;6.782;2023-02-01T05:44:46;13.30;;;4.50;;
9256;SDS011;4665;51.368;6.782;2023-02-01T05:47:11;12.50;;;3.87;;
9256;SDS011;4665;51.368;6.782;2023-02-01T05:49:37;14.40;;;3.90;;
9256;SDS011;4665;51.368;6.782;2023-02-01T05:52:03;16.40;;;3.97;;
9256;SDS011;4665;51.368;6.782;2023-02-01T05:54:28;15.40;;;3.97;;
9256;SDS011;4665;51.368;6.782;2023-02-01T05:56:54;13.70;;;3.93;;
9256;SDS011;4665;51.368;6.782;2023-02-01T05:59:19;12.70;;;3.83;;
9256;SDS011;4665;51.368;6.782;2023-02-01T06:01:44;15.40;;;4.10;;
9256;SDS011;4665;51.368;6.782;2023-02-01T06:04:10;12.90;;;4.27;;
9256;SDS011;4665;51.368;6.782;2023-02-01T06:06:35;11.40;;;4.03;;
9256;SDS011;4665;51.368;6.782;2023-02-01T06:09:02;14.57;;;5.00;;
9256;SDS011;4665;51.368;6.782;2023-02-01T06:11:28;12.20;;;4.00;;
9256;SDS011;4665;51.368;6.782;2023-02-01T06:13:54;15.73;;;4.00;;
9256;SDS011;4665;51.368;6.782;2023-02-01T06:16:20;15.10;;;4.13;;
9256;SDS011;4665;51.368;6.782;2023-02-01T06:18:47;12.40;;;3.83;;
9256;SDS011;4665;51.368;6.782;2023-02-01T06:21:12;13.00;;;3.77;;
9256;SDS011;4665;51.368;6.782;2023-02-01T06:23:39;15.40;;;4.10;;
9256;SDS011;4665;51.368;6.782;2023-02-01T06:26:05;15.33;;;3.93;;
9256;SDS011;4665;51.368;6.782;2023-02-01T06:28:32;11.70;;;3.90;;
9256;SDS011;4665;51.368;6.782;2023-02-01T06:31:02;16.40;;;5.37;;
9256;SDS011;4665;51.368;6.782;2023-02-01T06:33:34;13.60;;;4.30;;
9256;SDS011;4665;51.368;6.782;2023-02-01T06:36:00;18.13;;;4.03;;
9256;SDS011;4665;51.368;6.782;2023-02-01T06:38:28;11.23;;;3.90;;
9256;SDS011;4665;51.368;6.782;2023-02-01T06:40:54;12.30;;;3.73;;
9256;SDS011;4665;51.368;6.782;2023-02-01T06:43:24;15.83;;;5.03;;
9256;SDS011;4665;51.368;6.782;2023-02-01T06:45:51;19.43;;;4.17;;
9256;SDS011;4665;51.368;6.782;2023-02-01T06:48:17;12.90;;;4.17;;
9256;SDS011;4665;51.368;6.782;2023-02-01T06:50:42;14.13;;;4.50;;
9256;SDS011;4665;51.368;6.782;2023-02-01T06:53:08;13.50;;;4.40;;
9256;SDS011;4665;51.368;6.782;2023-02-01T06:55:33;14.40;;;3.73;;
9256;SDS011;4665;51.368;6.782;2023-02-01T06:57:59;10.53;;;3.67;;
9256;SDS011;4665;51.368;6.782;2023-02-01T07:00:26;18.77;;;4.30;;
9256;SDS011;4665;51.368;6.782;2023-02-01T07:02:51;12.83;;;3.80;;
9256;SDS011;4665;51.368;6.782;2023-02-01T07:05:17;15.27;;;3.97;;
9256;SDS011;4665;51.368;6.782;2023-02-01T07:07:42;12.60;;;3.93;;
9256;SDS011;4665;51.368;6.782;2023-02-01T07:10:08;19.33;;;4.53;;
9256;SDS011;4665;51.368;6.782;2023-02-01T07:12:35;16.80;;;4.07;;
9256;SDS011;4665;51.368;6.782;2023-02-01T07:15:00;14.10;;;3.60;;
9256;SDS011;4665;51.368;6.782;2023-02-01T07:17:27;18.67;;;5.23;;
9256;SDS011;4665;51.368;6.782;2023-02-01T07:19:54;17.60;;;3.80;;
9256;SDS011;4665;51.368;6.782;2023-02-01T07:22:19;15.70;;;4.40;;
9256;SDS011;4665;51.368;6.782;2023-02-01T07:24:45;13.07;;;3.57;;
9256;SDS011;4665;51.368;6.782;2023-02-01T07:27:10;13.63;;;4.10;;
9256;SDS011;4665;51.368;6.782;2023-02-01T07:29:36;15.07;;;4.13;;
9256;SDS011;4665;51.368;6.782;2023-02-01T07:32:01;21.00;;;4.50;;
9256;SDS011;4665;51.368;6.782;2023-02-01T07:34:27;16.07;;;4.53;;
9256;SDS011;4665;51.368;6.782;2023-02-01T07:36:53;11.90;;;4.13;;
9256;SDS011;4665;51.368;6.782;2023-02-01T07:39:18;13.43;;;3.70;;
9256;SDS011;4665;51.368;6.782;2023-02-01T07:41:43;15.60;;;3.93;;
9256;SDS011;4665;51.368;6.782;2023-02-01T07:44:09;15.17;;;4.13;;
9256;SDS011;4665;51.368;6.782;2023-02-01T07:46:34;13.37;;;4.03;;
9256;SDS011;4665;51.368;6.782;2023-02-01T07:49:00;11.87;;;3.87;;
9256;SDS011;4665;51.368;6.782;2023-02-01T07:51:26;13.63;;;4.33;;
9256;SDS011;4665;51.368;6.782;2023-02-01T07:53:51;14.07;;;4.03;;
9256;SDS011;4665;51.368;6.782;2023-02-01T07:56:18;19.77;;;4.60;;
9256;SDS011;4665;51.368;6.782;2023-02-01T07:58:48;13.23;;;4.13;;
9256;SDS011;4665;51.368;6.782;2023-02-01T08:01:19;17.63;;;4.27;;
9256;SDS011;4665;51.368;6.782;2023-02-01T08:03:53;17.57;;;4.40;;
9256;SDS011;4665;51.368;6.782;2023-02-01T08:06:24;12.77;;;3.93;;
9256;SDS011;4665;51.368;6.782;2023-02-01T08:08:50;14.23;;;4.27;;
9256;SDS011;4665;51.368;6.782;2023-02-01T08:11:17;16.57;;;4.63;;
9256;SDS011;4665;51.368;6.782;2023-02-01T08:13:42;15.67;;;4.17;;
9256;SDS011;4665;51.368;6.782;2023-02-01T08:16:08;11.10;;;3.80;;
9256;SDS011;4665;51.368;6.782;2023-02-01T08:18:36;11.50;;;4.23;;
9256;SDS011;4665;51.368;6.782;2023-02-01T08:23:33;14.80;;;3.57;;
9256;SDS011;4665;51.368;6.782;2023-02-01T08:26:13;14.10;;;4.17;;
9256;SDS011;4665;51.368;6.782;2023-02-01T08:28:48;14.73;;;3.80;;
9256;SDS011;4665;51.368;6.782;2023-02-01T08:31:19;16.83;;;4.83;;
9256;SDS011;4665;51.368;6.782;2023-02-01T08:33:49;9.30;;;4.27;;
9256;SDS011;4665;51.368;6.782;2023-02-01T08:36:16;15.47;;;4.77;;
9256;SDS011;4665;51.368;6.782;2023-02-01T08:38:42;12.77;;;4.87;;
9256;SDS011;4665;51.368;6.782;2023-02-01T08:41:08;15.90;;;4.03;;
9256;SDS011;4665;51.368;6.782;2023-02-01T08:43:38;15.87;;;3.80;;
9256;SDS011;4665;51.368;6.782;2023-02-01T08:46:04;13.77;;;4.10;;
9256;SDS011;4665;51.368;6.782;2023-02-01T08:48:31;19.53;;;4.70;;
9256;SDS011;4665;51.368;6.782;2023-02-01T08:50:57;14.47;;;4.70;;
9256;SDS011;4665;51.368;6.782;2023-02-01T08:53:25;12.13;;;4.17;;
9256;SDS011;4665;51.368;6.782;2023-02-01T08:55:50;15.37;;;3.87;;
9256;SDS011;4665;51.368;6.782;2023-02-01T08:58:16;15.23;;;4.83;;
9256;SDS011;4665;51.368;6.782;2023-02-01T09:00:42;12.40;;;3.80;;
9256;SDS011;4665;51.368;6.782;2023-02-01T09:03:10;18.70;;;4.33;;
9256;SDS011;4665;51.368;6.782;2023-02-01T09:05:36;10.63;;;3.57;;
9256;SDS011;4665;51.368;6.782;2023-02-01T09:08:01;17.47;;;4.43;;
9256;SDS011;4665;51.368;6.782;2023-02-01T09:10:27;17.13;;;4.07;;
9256;SDS011;4665;51.368;6.782;2023-02-01T09:12:52;13.27;;;4.07;;
9256;SDS011;4665;51.368;6.782;2023-02-01T09:15:18;19.07;;;4.70;;
9256;SDS011;4665;51.368;6.782;2023-02-01T09:17:43;15.27;;;4.17;;
9256;SDS011;4665;51.368;6.782;2023-02-01T09:20:09;20.90;;;4.53;;
9256;SDS011;4665;51.368;6.782;2023-02-01T09:22:35;14.47;;;4.37;;
9256;SDS011;4665;51.368;6.782;2023-02-01T09:25:00;14.87;;;4.47;;
9256;SDS011;4665;51.368;6.782;2023-02-01T09:27:25;17.23;;;4.40;;
9256;SDS011;4665;51.368;6.782;2023-02-01T09:29:51;12.30;;;4.33;;
9256;SDS011;4665;51.368;6.782;2023-02-01T09:32:21;14.60;;;4.70;;
9256;SDS011;4665;51.368;6.782;2023-02-01T09:34:47;15.87;;;4.53;;
9256;SDS011;4665;51.368;6.782;2023-02-01T09:37:13;15.73;;;4.47;;
9256;SDS011;4665;51.368;6.782;2023-02-01T09:39:38;16.43;;;4.40;;
9256;SDS011;4665;51.368;6.782;2023-02-01T09:47:14;13.07;;;4.67;;
9256;SDS011;4665;51.368;6.782;2023-02-01T09:49:50;13.97;;;4.67;;
9256;SDS011;4665;51.368;6.782;2023-02-01T09:52:23;15.70;;;3.97;;
9256;SDS011;4665;51.368;6.782;2023-02-01T09:54:55;13.03;;;4.10;;
9256;SDS011;4665;51.368;6.782;2023-02-01T09:57:34;14.07;;;4.23;;
9256;SDS011;4665;51.368;6.782;2023-02-01T10:00:04;17.60;;;4.37;;
9256;SDS011;4665;51.368;6.782;2023-02-01T10:02:40;16.63;;;4.03;;
9256;SDS011;4665;51.368;6.782;2023-02-01T10:05:10;18.90;;;4.60;;
9256;SDS011;4665;51.368;6.782;2023-02-01T10:10:47;12.20;;;4.47;;
9256;SDS011;4665;51.368;6.782;2023-02-01T10:16:02;12.10;;;4.63;;
9256;SDS011;4665;51.368;6.782;2023-02-01T10:21:54;14.90;;;4.53;;
9256;SDS011;4665;51.368;6.782;2023-02-01T10:29:36;11.17;;;3.90;;
9256;SDS011;4665;51.368;6.782;2023-02-01T10:32:19;12.27;;;4.20;;
9256;SDS011;4665;51.368;6.782;2023-02-01T10:34:57;11.30;;;4.27;;
9256;SDS011;4665;51.368;6.782;2023-02-01T10:37:27;15.67;;;4.30;;
9256;SDS011;4665;51.368;6.782;2023-02-01T10:39:55;15.43;;;4.50;;
9256;SDS011;4665;51.368;6.782;2023-02-01T10:42:26;15.70;;;4.37;;
9256;SDS011;4665;51.368;6.782;2023-02-01T10:44:54;15.30;;;4.00;;
9256;SDS011;4665;51.368;6.782;2023-02-01T10:47:23;18.20;;;4.37;;
9256;SDS011;4665;51.368;6.782;2023-02-01T10:52:20;16.20;;;4.07;;
9256;SDS011;4665;51.368;6.782;2023-02-01T10:57:56;14.37;;;4.40;;
9256;SDS011;4665;51.368;6.782;2023-02-01T11:00:26;9.40;;;3.70;;
9256;SDS011;4665;51.368;6.782;2023-02-01T11:02:53;16.13;;;5.00;;
9256;SDS011;4665;51.368;6.782;2023-02-01T11:05:18;14.50;;;4.40;;
9256;SDS011;4665;51.368;6.782;2023-02-01T11:07:51;14.57;;;4.07;;
9256;SDS011;4665;51.368;6.782;2023-02-01T11:10:39;14.13;;;4.57;;
9256;SDS011;4665;51.368;6.782;2023-02-01T11:13:13;14.33;;;4.27;;
9256;SDS011;4665;51.368;6.782;2023-02-01T11:15:44;12.80;;;4.13;;
9256;SDS011;4665;51.368;6.782;2023-02-01T11:18:18;17.20;;;4.60;;
9256;SDS011;4665;51.368;6.782;2023-02-01T11:20:45;13.23;;;4.43;;
9256;SDS011;4665;51.368;6.782;2023-02-01T11:23:17;13.90;;;4.97;;
9256;SDS011;4665;51.368;6.782;2023-02-01T11:25:56;9.13;;;3.33;;
9256;SDS011;4665;51.368;6.782;2023-02-01T11:28:25;8.77;;;3.80;;
9256;SDS011;4665;51.368;6.782;2023-02-01T11:30:58;13.80;;;4.13;;
9256;SDS011;4665;51.368;6.782;2023-02-01T11:33:29;17.23;;;4.43;;
9256;SDS011;4665;51.368;6.782;2023-02-01T11:36:00;12.47;;;4.27;;
9256;SDS011;4665;51.368;6.782;2023-02-01T11:38:32;13.67;;;4.23;;
9256;SDS011;4665;51.368;6.782;2023-02-01T11:41:14;10.53;;;3.63;;
9256;SDS011;4665;51.368;6.782;2023-02-01T11:43:58;10.87;;;4.03;;
9256;SDS011;4665;51.368;6.782;2023-02-01T11:46:29;15.10;;;3.93;;
9256;SDS011;4665;51.368;6.782;2023-02-01T11:48:57;15.80;;;4.30;;
9256;SDS011;4665;51.368;6.782;2023-02-01T11:57:04;11.27;;;4.57;;
9256;SDS011;4665;51.368;6.782;2023-02-01T12:02:34;10.67;;;4.13;;
9256;SDS011;4665;51.368;6.782;2023-02-01T12:05:25;14.53;;;4.73;;
9256;SDS011;4665;51.368;6.782;2023-02-01T12:21:32;15.87;;;4.30;;
9256;SDS011;4665;51.368;6.782;2023-02-01T12:29:35;9.73;;;4.03;;
9256;SDS011;4665;51.368;6.782;2023-02-01T12:32:05;14.00;;;4.03;;
9256;SDS011;4665;51.368;6.782;2023-02-01T12:39:54;10.87;;;3.83;;
9256;SDS011;4665;51.368;6.782;2023-02-01T12:42:26;12.33;;;3.73;;
9256;SDS011;4665;51.368;6.782;2023-02-01T12:50:57;10.77;;;3.53;;
9256;SDS011;4665;51.368;6.782;2023-02-01T12:53:45;6.73;;;3.20;;
9256;SDS011;4665;51.368;6.782;2023-02-01T12:56:22;10.77;;;3.47;;
9256;SDS011;4665;51.368;6.782;2023-02-01T12:58:54;10.17;;;3.23;;
9256;SDS011;4665;51.368;6.782;2023-02-01T13:01:42;17.03;;;4.13;;
9256;SDS011;4665;51.368;6.782;2023-02-01T13:04:38;16.00;;;3.87;;
9256;SDS011;4665;51.368;6.782;2023-02-01T13:07:16;13.13;;;3.43;;
9256;SDS011;4665;51.368;6.782;2023-02-01T13:10:29;9.90;;;2.93;;
9256;SDS011;4665;51.368;6.782;2023-02-01T13:13:09;10.63;;;3.27;;
9256;SDS011;4665;51.368;6.782;2023-02-01T13:18:35;8.33;;;3.13;;
9256;SDS011;4665;51.368;6.782;2023-02-01T13:21:10;11.33;;;3.50;;
9256;SDS011;4665;51.368;6.782;2023-02-01T13:23:41;14.90;;;4.03;;
9256;SDS011;4665;51.368;6.782;2023-02-01T13:26:11;9.73;;;3.33;;
9256;SDS011;4665;51.368;6.782;2023-02-01T13:31:37;12.20;;;3.60;;
9256;SDS011;4665;51.368;6.782;2023-02-01T13:34:36;9.20;;;3.00;;
9256;SDS011;4665;51.368;6.782;2023-02-01T13:40:18;14.50;;;4.47;;
9256;SDS011;4665;51.368;6.782;2023-02-01T13:45:28;9.57;;;3.43;;
9256;SDS011;4665;51.368;6.782;2023-02-01T13:47:58;11.00;;;3.33;;
9256;SDS011;4665;51.368;6.782;2023-02-01T13:55:41;11.63;;;3.90;;
9256;SDS011;4665;51.368;6.782;2023-02-01T14:00:42;11.10;;;3.67;;
9256;SDS011;4665;51.368;6.782;2023-02-01T14:03:13;19.07;;;4.90;;
9256;SDS011;4665;51.368;6.782;2023-02-01T14:08:12;12.53;;;3.47;;
9256;SDS011;4665;51.368;6.782;2023-02-01T14:21:47;10.67;;;3.57;;
9256;SDS011;4665;51.368;6.782;2023-02-01T14:26:19;15.87;;;3.53;;
9256;SDS011;4665;51.368;6.782;2023-02-01T14:31:30;13.03;;;3.87;;
9256;SDS011;4665;51.368;6.782;2023-02-01T14:34:13;10.50;;;4.40;;
9256;SDS011;4665;51.368;6.782;2023-02-01T14:36:43;12.53;;;5.07;;
9256;SDS011;4665;51.368;6.782;2023-02-01T14:44:49;15.30;;;5.30;;
9256;SDS011;4665;51.368;6.782;2023-02-01T14:49:50;16.97;;;5.03;;
9256;SDS011;4665;51.368;6.782;2023-02-01T14:52:22;15.47;;;4.77;;
9256;SDS011;4665;51.368;6.782;2023-02-01T14:54:55;12.80;;;4.27;;
9256;SDS011;4665;51.368;6.782;2023-02-01T14:57:25;20.87;;;4.53;;
9256;SDS011;4665;51.368;6.782;2023-02-01T14:59:55;15.07;;;4.10;;
9256;SDS011;4665;51.368;6.782;2023-02-01T15:02:29;16.60;;;5.03;;
9256;SDS011;4665;51.368;6.782;2023-02-01T15:04:58;14.03;;;4.67;;
9256;SDS011;4665;51.368;6.782;2023-02-01T15:07:24;15.13;;;5.87;;
9256;SDS011;4665;51.368;6.782;2023-02-01T15:09:52;12.83;;;4.67;;
9256;SDS011;4665;51.368;6.782;2023-02-01T15:12:24;10.47;;;4.40;;
9256;SDS011;4665;51.368;6.782;2023-02-01T15:15:12;16.97;;;4.70;;
9256;SDS011;4665;51.368;6.782;2023-02-01T15:17:40;15.33;;;4.97;;
9256;SDS011;4665;51.368;6.782;2023-02-01T15:20:16;16.73;;;5.13;;
9256;SDS011;4665;51.368;6.782;2023-02-01T15:25:30;17.97;;;4.73;;
9256;SDS011;4665;51.368;6.782;2023-02-01T15:27:58;14.13;;;5.63;;
9256;SDS011;4665;51.368;6.782;2023-02-01T15:32:52;15.53;;;4.93;;
9256;SDS011;4665;51.368;6.782;2023-02-01T15:40:58;14.13;;;5.07;;
9256;SDS011;4665;51.368;6.782;2023-02-01T15:43:34;15.07;;;4.47;;
9256;SDS011;4665;51.368;6.782;2023-02-01T15:46:17;16.60;;;4.97;;
9256;SDS011;4665;51.368;6.782;2023-02-01T15:49:05;11.30;;;3.90;;
9256;SDS011;4665;51.368;6.782;2023-02-01T15:51:48;11.87;;;3.97;;
9256;SDS011;4665;51.368;6.782;2023-02-01T15:54:17;11.40;;;3.90;;
9256;SDS011;4665;51.368;6.782;2023-02-01T15:56:51;9.30;;;3.20;;
9256;SDS011;4665;51.368;6.782;2023-02-01T15:59:22;10.60;;;3.23;;
9256;SDS011;4665;51.368;6.782;2023-02-01T16:01:53;13.97;;;3.50;;
9256;SDS011;4665;51.368;6.782;2023-02-01T16:04:23;14.27;;;3.23;;
9256;SDS011;4665;51.368;6.782;2023-02-01T16:06:53;13.70;;;3.30;;
9256;SDS011;4665;51.368;6.782;2023-02-01T16:09:48;9.03;;;2.57;;
9256;SDS011;4665;51.368;6.782;2023-02-01T16:14:59;13.50;;;3.40;;
9256;SDS011;4665;51.368;6.782;2023-02-01T16:17:25;17.07;;;3.57;;
9256;SDS011;4665;51.368;6.782;2023-02-01T16:19:51;17.63;;;3.97;;
9256;SDS011;4665;51.368;6.782;2023-02-01T16:22:16;8.77;;;3.07;;
9256;SDS011;4665;51.368;6.782;2023-02-01T16:24:42;16.53;;;3.67;;
9256;SDS011;4665;51.368;6.782;2023-02-01T16:27:07;15.97;;;4.00;;
9256;SDS011;4665;51.368;6.782;2023-02-01T16:29:32;12.73;;;3.57;;
9256;SDS011;4665;51.368;6.782;2023-02-01T16:31:58;13.93;;;3.37;;
9256;SDS011;4665;51.368;6.782;2023-02-01T16:34:24;10.07;;;3.40;;
9256;SDS011;4665;51.368;6.782;2023-02-01T16:36:50;12.60;;;4.43;;
9256;SDS011;4665;51.368;6.782;2023-02-01T16:39:22;14.43;;;4.87;;
9256;SDS011;4665;51.368;6.782;2023-02-01T16:41:48;13.63;;;3.70;;
9256;SDS011;4665;51.368;6.782;2023-02-01T16:44:13;13.83;;;3.80;;
9256;SDS011;4665;51.368;6.782;2023-02-01T16:46:39;14.67;;;4.33;;
9256;SDS011;4665;51.368;6.782;2023-02-01T16:49:16;14.67;;;5.50;;
9256;SDS011;4665;51.368;6.782;2023-02-01T16:51:42;16.80;;;4.57;;
9256;SDS011;4665;51.368;6.782;2023-02-01T16:54:07;12.17;;;4.63;;
9256;SDS011;4665;51.368;6.782;2023-02-01T16:56:33;9.53;;;3.30;;
9256;SDS011;4665;51.368;6.782;2023-02-01T16:59:00;10.40;;;3.80;;
9256;SDS011;4665;51.368;6.782;2023-02-01T17:01:26;10.90;;;4.20;;
9256;SDS011;4665;51.368;6.782;2023-02-01T17:03:51;16.03;;;4.10;;
9256;SDS011;4665;51.368;6.782;2023-02-01T17:06:19;10.93;;;4.43;;
9256;SDS011;4665;51.368;6.782;2023-02-01T17:08:51;12.43;;;4.00;;
9256;SDS011;4665;51.368;6.782;2023-02-01T17:11:19;17.20;;;4.47;;
9256;SDS011;4665;51.368;6.782;2023-02-01T17:13:45;11.20;;;4.00;;
9256;SDS011;4665;51.368;6.782;2023-02-01T17:18:38;13.20;;;4.20;;
9256;SDS011;4665;51.368;6.782;2023-02-01T17:21:04;12.97;;;4.17;;
9256;SDS011;4665;51.368;6.782;2023-02-01T17:23:30;14.90;;;4.97;;
9256;SDS011;4665;51.368;6.782;2023-02-01T17:25:56;16.43;;;5.17;;
9256;SDS011;4665;51.368;6.782;2023-02-01T17:28:22;16.77;;;5.20;;
9256;SDS011;4665;51.368;6.782;2023-02-01T17:30:48;13.93;;;4.80;;
9256;SDS011;4665;51.368;6.782;2023-02-01T17:33:21;20.00;;;5.23;;
9256;SDS011;4665;51.368;6.782;2023-02-01T17:35:50;16.87;;;6.23;;
9256;SDS011;4665;51.368;6.782;2023-02-01T17:38:17;15.57;;;5.67;;
9256;SDS011;4665;51.368;6.782;2023-02-01T17:40:43;17.20;;;6.00;;
9256;SDS011;4665;51.368;6.782;2023-02-01T17:43:10;22.07;;;5.77;;
9256;SDS011;4665;51.368;6.782;2023-02-01T17:45:39;21.90;;;6.87;;
9256;SDS011;4665;51.368;6.782;2023-02-01T17:48:20;23.00;;;8.97;;
9256;SDS011;4665;51.368;6.782;2023-02-01T17:50:47;19.33;;;7.43;;
9256;SDS011;4665;51.368;6.782;2023-02-01T17:53:18;17.13;;;6.20;;
9256;SDS011;4665;51.368;6.782;2023-02-01T17:55:46;13.80;;;4.83;;
9256;SDS011;4665;51.368;6.782;2023-02-01T17:58:12;11.23;;;3.63;;
9256;SDS011;4665;51.368;6.782;2023-02-01T18:00:38;11.53;;;4.40;;
9256;SDS011;4665;51.368;6.782;2023-02-01T18:03:05;11.87;;;3.93;;
9256;SDS011;4665;51.368;6.782;2023-02-01T18:05:40;11.53;;;3.60;;
9256;SDS011;4665;51.368;6.782;2023-02-01T18:08:08;9.07;;;3.20;;
9256;SDS011;4665;51.368;6.782;2023-02-01T18:10:34;9.93;;;3.60;;
9256;SDS011;4665;51.368;6.782;2023-02-01T18:13:03;11.37;;;4.03;;
9256;SDS011;4665;51.368;6.782;2023-02-01T18:15:29;13.53;;;3.33;;